SAWE

Hermes Quijada International Airport

Rio Grande, Argentina
TAF SAWE 231700Z 2318/2418 29020G35KT 9999 FEW015 TX11/2319Z TN04/2411Z PROB40 TEMPO 2319/2321 -SHRA SCT030 BKN050 BECMG 2323/2401 32020G40KT SCT030 OVC070
Issued Valid From Valid To
Apr-23 @ 17:00 UTC
(6 hours ago)
Apr-23 @ 18:00 UTC
(5 hours ago)
Apr-24 @ 18:00 UTC
(in 19 hours)
Expired Click to View Apr-23 @ 18:00 to Apr-23 @ 23:00
TAF SAWE 231700Z 2318/2418 29020G35KT 9999 FEW015 TX11/2319Z TN04/2411Z
Wind Visibility Clouds
290° at 20 knots
 Gusting to 35 knots
10,000+ meters
  • Few at 1,500' AGL
Expired Click to View Apr-23 @ 19:00 to Apr-23 @ 21:00
PROB40 TEMPO 2319/2321 -SHRA SCT030 BKN050
Clouds Conditions
  • Scattered at 3,000' AGL
  • Broken at 5,000' AGL
  • Light Rain
Becoming Apr-23 @ 23:00 to Apr-24 @ 18:00
BECMG 2323/2401 32020G40KT SCT030 OVC070
Wind Visibility Clouds
320° at 20 knots
 Gusting to 40 knots
10,000+ meters
  • Scattered at 3,000' AGL
  • Overcast at 7,000' AGL
TAF SAWE 231700Z 2318/2418 29020G35KT 9999 FEW015 TX11/2319Z TN04/2411Z PROB40 TEMPO 2319/2321 -SHRA SCT030 BKN050 BECMG 2323/2401 32020G40KT SCT030 OVC070
Issued Apr-23 @ 17:00 UTC
(6 hours ago)
Valid From Apr-23 @ 18:00 UTC
(5 hours ago)
Valid To Apr-24 @ 18:00 UTC
(in 19 hours)
Apr-23 @ 18:00 - Apr-23 @ 23:00
Wind Visibility
290° at 20 knots
 Gusting to 35 knots
10,000+ meters
Clouds
  • Few at 1,500' AGL
Apr-23 @ 19:00 - Apr-23 @ 21:00
Clouds
  • Scattered at 3,000' AGL
  • Broken at 5,000' AGL
Conditions
  • Light Rain
Becoming Apr-23 @ 23:00 - Apr-24 @ 18:00
Wind Visibility
320° at 20 knots
 Gusting to 40 knots
10,000+ meters
Clouds
  • Scattered at 3,000' AGL
  • Overcast at 7,000' AGL